sensor_id;sensor_type;location;lat;lon;timestamp;pressure;altitude;pressure_sealevel;temperature;humidity
77207;BME280;66190;50.708;7.906;2023-07-29T00:00:35;95841.16;;;17.40;100.00
77207;BME280;66190;50.708;7.906;2023-07-29T00:03:00;95833.84;;;17.45;100.00
77207;BME280;66190;50.708;7.906;2023-07-29T00:05:26;95833.84;;;17.45;100.00
77207;BME280;66190;50.708;7.906;2023-07-29T00:07:52;95831.13;;;17.45;100.00
77207;BME280;66190;50.708;7.906;2023-07-29T00:10:17;95818.13;;;17.47;100.00
77207;BME280;66190;50.708;7.906;2023-07-29T00:12:42;95820.84;;;17.47;100.00
77207;BME280;66190;50.708;7.906;2023-07-29T00:15:08;95813.19;;;17.44;100.00
77207;BME280;66190;50.708;7.906;2023-07-29T00:17:34;95816.72;;;17.45;100.00
77207;BME280;66190;50.708;7.906;2023-07-29T00:19:59;95814.31;;;17.48;100.00
77207;BME280;66190;50.708;7.906;2023-07-29T00:22:24;95819.50;;;17.50;100.00
77207;BME280;66190;50.708;7.906;2023-07-29T00:24:53;95820.31;;;17.50;100.00
77207;BME280;66190;50.708;7.906;2023-07-29T00:27:20;95818.13;;;17.47;100.00
77207;BME280;66190;50.708;7.906;2023-07-29T00:29:46;95817.31;;;17.47;100.00
77207;BME280;66190;50.708;7.906;2023-07-29T00:32:12;95820.31;;;17.50;100.00
77207;BME280;66190;50.708;7.906;2023-07-29T00:34:37;95814.31;;;17.48;100.00
77207;BME280;66190;50.708;7.906;2023-07-29T00:37:02;95809.19;;;17.52;100.00
77207;BME280;66190;50.708;7.906;2023-07-29T00:39:28;95805.41;;;17.53;100.00
77207;BME280;66190;50.708;7.906;2023-07-29T00:41:53;95808.38;;;17.51;100.00
77207;BME280;66190;50.708;7.906;2023-07-29T00:44:19;95792.59;;;17.53;100.00
77207;BME280;66190;50.708;7.906;2023-07-29T00:46:45;95792.06;;;17.51;100.00
77207;BME280;66190;50.708;7.906;2023-07-29T00:49:11;95798.56;;;17.50;100.00
77207;BME280;66190;50.708;7.906;2023-07-29T00:51:37;95798.28;;;17.52;100.00
77207;BME280;66190;50.708;7.906;2023-07-29T00:54:02;95791.53;;;17.54;100.00
77207;BME280;66190;50.708;7.906;2023-07-29T00:56:28;95788.53;;;17.56;100.00
77207;BME280;66190;50.708;7.906;2023-07-29T00:58:54;95791.00;;;17.57;100.00
77207;BME280;66190;50.708;7.906;2023-07-29T01:01:24;95782.84;;;17.57;100.00
77207;BME280;66190;50.708;7.906;2023-07-29T01:03:49;95782.56;;;17.59;100.00
77207;BME280;66190;50.708;7.906;2023-07-29T01:09:10;95774.97;;;17.61;100.00
77207;BME280;66190;50.708;7.906;2023-07-29T01:16:47;95783.09;;;17.56;100.00
77207;BME280;66190;50.708;7.906;2023-07-29T01:19:40;95768.13;;;17.58;100.00
77207;BME280;66190;50.708;7.906;2023-07-29T01:22:07;95772.78;;;17.58;100.00
77207;BME280;66190;50.708;7.906;2023-07-29T01:24:34;95767.06;;;17.59;100.00
77207;BME280;66190;50.708;7.906;2023-07-29T01:26:59;95759.75;;;17.60;100.00
77207;BME280;66190;50.708;7.906;2023-07-29T01:29:27;95753.47;;;17.59;100.00
77207;BME280;66190;50.708;7.906;2023-07-29T01:31:54;95752.66;;;17.59;100.00
77207;BME280;66190;50.708;7.906;2023-07-29T01:35:27;95756.19;;;17.59;100.00
77207;BME280;66190;50.708;7.906;2023-07-29T01:37:33;95743.66;;;17.58;100.00
77207;BME280;66190;50.708;7.906;2023-07-29T01:40:00;95746.91;;;17.55;100.00
77207;BME280;66190;50.708;7.906;2023-07-29T01:42:26;95757.25;;;17.58;100.00
77207;BME280;66190;50.708;7.906;2023-07-29T01:44:52;95762.47;;;17.60;100.00
77207;BME280;66190;50.708;7.906;2023-07-29T01:47:18;95751.81;;;17.58;100.00
77207;BME280;66190;50.708;7.906;2023-07-29T01:49:44;95754.28;;;17.55;100.00
77207;BME280;66190;50.708;7.906;2023-07-29T01:52:09;95749.91;;;17.54;100.00
77207;BME280;66190;50.708;7.906;2023-07-29T01:54:34;95755.06;;;17.55;100.00
77207;BME280;66190;50.708;7.906;2023-07-29T01:57:00;95750.47;;;17.56;100.00
77207;BME280;66190;50.708;7.906;2023-07-29T01:59:25;95747.75;;;17.56;100.00
77207;BME280;66190;50.708;7.906;2023-07-29T02:01:50;95748.56;;;17.56;100.00
77207;BME280;66190;50.708;7.906;2023-07-29T02:04:16;95745.84;;;17.56;100.00
77207;BME280;66190;50.708;7.906;2023-07-29T02:06:41;95739.31;;;17.57;100.00
77207;BME280;66190;50.708;7.906;2023-07-29T02:09:07;95739.31;;;17.57;100.00
77207;BME280;66190;50.708;7.906;2023-07-29T02:11:33;95738.47;;;17.57;100.00
77207;BME280;66190;50.708;7.906;2023-07-29T02:13:58;95734.44;;;17.59;100.00
77207;BME280;66190;50.708;7.906;2023-07-29T02:16:23;95731.72;;;17.59;100.00
77207;BME280;66190;50.708;7.906;2023-07-29T02:18:49;95733.03;;;17.57;100.00
77207;BME280;66190;50.708;7.906;2023-07-29T02:21:15;95723.25;;;17.56;100.00
77207;BME280;66190;50.708;7.906;2023-07-29T02:23:40;95720.53;;;17.56;100.00
77207;BME280;66190;50.708;7.906;2023-07-29T02:26:06;95726.78;;;17.51;100.00
77207;BME280;66190;50.708;7.906;2023-07-29T02:28:31;95721.06;;;17.53;100.00
77207;BME280;66190;50.708;7.906;2023-07-29T02:31:19;95719.41;;;17.52;100.00
77207;BME280;66190;50.708;7.906;2023-07-29T02:33:45;95722.97;;;17.52;100.00
77207;BME280;66190;50.708;7.906;2023-07-29T02:36:12;95721.06;;;17.53;100.00
77207;BME280;66190;50.708;7.906;2023-07-29T02:38:38;95718.63;;;17.51;100.00
77207;BME280;66190;50.708;7.906;2023-07-29T02:41:04;95714.53;;;17.54;100.00
77207;BME280;66190;50.708;7.906;2023-07-29T02:43:29;95712.09;;;17.52;100.00
77207;BME280;66190;50.708;7.906;2023-07-29T02:45:54;95711.53;;;17.50;100.00
77207;BME280;66190;50.708;7.906;2023-07-29T02:48:20;95709.34;;;17.47;100.00
77207;BME280;66190;50.708;7.906;2023-07-29T02:50:45;95713.41;;;17.50;100.00
77207;BME280;66190;50.708;7.906;2023-07-29T02:53:11;95710.97;;;17.48;100.00
77207;BME280;66190;50.708;7.906;2023-07-29T02:55:39;95697.63;;;17.47;100.00
77207;BME280;66190;50.708;7.906;2023-07-29T02:58:05;95696.56;;;17.48;100.00
77207;BME280;66190;50.708;7.906;2023-07-29T03:00:32;95685.94;;;17.46;100.00
77207;BME280;66190;50.708;7.906;2023-07-29T03:02:58;95690.53;;;17.46;100.00
77207;BME280;66190;50.708;7.906;2023-07-29T03:05:23;95692.44;;;17.45;100.00
77207;BME280;66190;50.708;7.906;2023-07-29T03:07:49;95691.88;;;17.43;100.00
77207;BME280;66190;50.708;7.906;2023-07-29T03:10:14;95695.41;;;17.44;100.00
77207;BME280;66190;50.708;7.906;2023-07-29T03:12:40;95694.03;;;17.41;100.00
77207;BME280;66190;50.708;7.906;2023-07-29T03:15:06;95698.09;;;17.39;100.00
77207;BME280;66190;50.708;7.906;2023-07-29T03:17:31;95692.94;;;17.37;100.00
77207;BME280;66190;50.708;7.906;2023-07-29T03:19:57;95701.38;;;17.36;100.00
77207;BME280;66190;50.708;7.906;2023-07-29T03:22:22;95704.63;;;17.38;100.00
77207;BME280;66190;50.708;7.906;2023-07-29T03:24:48;95688.56;;;17.36;100.00
77207;BME280;66190;50.708;7.906;2023-07-29T03:27:13;95698.66;;;17.41;100.00
77207;BME280;66190;50.708;7.906;2023-07-29T03:29:41;95697.84;;;17.40;100.00
77207;BME280;66190;50.708;7.906;2023-07-29T03:32:06;95689.41;;;17.42;100.00
77207;BME280;66190;50.708;7.906;2023-07-29T03:34:32;95694.59;;;17.43;100.00
77207;BME280;66190;50.708;7.906;2023-07-29T03:36:58;95693.84;;;17.48;100.00
77207;BME280;66190;50.708;7.906;2023-07-29T03:39:23;95702.25;;;17.46;100.00
77207;BME280;66190;50.708;7.906;2023-07-29T03:41:49;95698.47;;;17.47;100.00
77207;BME280;66190;50.708;7.906;2023-07-29T03:44:14;95693.53;;;17.44;100.00
77207;BME280;66190;50.708;7.906;2023-07-29T03:46:40;95688.84;;;17.40;100.00
77207;BME280;66190;50.708;7.906;2023-07-29T03:49:05;95691.03;;;17.43;100.00
77207;BME280;66190;50.708;7.906;2023-07-29T03:51:30;95694.91;;;17.47;100.00
77207;BME280;66190;50.708;7.906;2023-07-29T03:53:56;95679.38;;;17.42;100.00
77207;BME280;66190;50.708;7.906;2023-07-29T03:56:21;95685.94;;;17.46;100.00
77207;BME280;66190;50.708;7.906;2023-07-29T03:58:47;95691.38;;;17.46;100.00
77207;BME280;66190;50.708;7.906;2023-07-29T04:01:14;95694.31;;;17.45;100.00
77207;BME280;66190;50.708;7.906;2023-07-29T04:03:40;95693.25;;;17.46;100.00
77207;BME280;66190;50.708;7.906;2023-07-29T04:06:05;95684.88;;;17.47;100.00
77207;BME280;66190;50.708;7.906;2023-07-29T04:08:31;95693.22;;;17.41;100.00
77207;BME280;66190;50.708;7.906;2023-07-29T04:10:56;95688.31;;;17.43;100.00
77207;BME280;66190;50.708;7.906;2023-07-29T04:13:22;95694.09;;;17.46;100.00
77207;BME280;66190;50.708;7.906;2023-07-29T04:15:48;95691.59;;;17.45;100.00
77207;BME280;66190;50.708;7.906;2023-07-29T04:18:13;95697.03;;;17.45;100.00
77207;BME280;66190;50.708;7.906;2023-07-29T04:20:39;95687.59;;;17.47;100.00
77207;BME280;66190;50.708;7.906;2023-07-29T04:23:04;95687.00;;;17.45;100.00
77207;BME280;66190;50.708;7.906;2023-07-29T04:25:30;95688.41;;;17.48;100.00
77207;BME280;66190;50.708;7.906;2023-07-29T04:27:55;95699.75;;;17.45;100.00
77207;BME280;66190;50.708;7.906;2023-07-29T04:30:22;95700.59;;;17.45;100.00
77207;BME280;66190;50.708;7.906;2023-07-29T04:32:48;95695.97;;;17.46;100.00
77207;BME280;66190;50.708;7.906;2023-07-29T04:35:13;95691.38;;;17.46;100.00
77207;BME280;66190;50.708;7.906;2023-07-29T04:37:40;95701.19;;;17.47;100.00
77207;BME280;66190;50.708;7.906;2023-07-29T04:40:06;95690.81;;;17.44;100.00
77207;BME280;66190;50.708;7.906;2023-07-29T04:42:32;95686.13;;;17.40;100.00
77207;BME280;66190;50.708;7.906;2023-07-29T04:44:57;95690.25;;;17.42;100.00
77207;BME280;66190;50.708;7.906;2023-07-29T04:47:23;95678.00;;;17.45;100.00
77207;BME280;66190;50.708;7.906;2023-07-29T04:49:48;95684.59;;;17.49;100.00
77207;BME280;66190;50.708;7.906;2023-07-29T04:52:14;95687.00;;;17.45;100.00
77207;BME280;66190;50.708;7.906;2023-07-29T04:54:40;95699.28;;;17.48;100.00
77207;BME280;66190;50.708;7.906;2023-07-29T04:57:06;95695.19;;;17.50;100.00
77207;BME280;66190;50.708;7.906;2023-07-29T04:59:31;95701.19;;;17.52;100.00
77207;BME280;66190;50.708;7.906;2023-07-29T05:01:57;95695.47;;;17.49;100.00
77207;BME280;66190;50.708;7.906;2023-07-29T05:04:23;95704.19;;;17.51;100.00
77207;BME280;66190;50.708;7.906;2023-07-29T05:06:48;95695.19;;;17.50;100.00
77207;BME280;66190;50.708;7.906;2023-07-29T05:09:18;95701.19;;;17.52;100.00
77207;BME280;66190;50.708;7.906;2023-07-29T05:11:45;95711.00;;;17.53;100.00
77207;BME280;66190;50.708;7.906;2023-07-29T05:14:12;95711.25;;;17.52;100.00
77207;BME280;66190;50.708;7.906;2023-07-29T05:16:38;95708.03;;;17.55;100.00
77207;BME280;66190;50.708;7.906;2023-07-29T05:19:03;95691.16;;;17.53;100.00
77207;BME280;66190;50.708;7.906;2023-07-29T05:21:29;95700.09;;;17.53;100.00
77207;BME280;66190;50.708;7.906;2023-07-29T05:23:55;95706.91;;;17.51;100.00
77207;BME280;66190;50.708;7.906;2023-07-29T05:26:20;95703.06;;;17.47;100.00
77207;BME280;66190;50.708;7.906;2023-07-29T05:28:45;95709.91;;;17.49;100.00
77207;BME280;66190;50.708;7.906;2023-07-29T05:31:11;95708.25;;;17.48;100.00
77207;BME280;66190;50.708;7.906;2023-07-29T05:33:36;95719.69;;;17.50;100.00
77207;BME280;66190;50.708;7.906;2023-07-29T05:36:02;95711.22;;;17.47;100.00
77207;BME280;66190;50.708;7.906;2023-07-29T05:38:27;95707.19;;;17.49;100.00
77207;BME280;66190;50.708;7.906;2023-07-29T05:40:53;95709.38;;;17.52;100.00
77207;BME280;66190;50.708;7.906;2023-07-29T05:43:18;95706.94;;;17.56;100.00
77207;BME280;66190;50.708;7.906;2023-07-29T05:45:43;95708.06;;;17.65;100.00
77207;BME280;66190;50.708;7.906;2023-07-29T05:48:09;95722.25;;;17.67;100.00
77207;BME280;66190;50.708;7.906;2023-07-29T05:50:34;95725.47;;;17.64;100.00
77207;BME280;66190;50.708;7.906;2023-07-29T05:52:59;95724.34;;;17.55;100.00
77207;BME280;66190;50.708;7.906;2023-07-29T05:55:25;95731.69;;;17.54;100.00
77207;BME280;66190;50.708;7.906;2023-07-29T05:57:50;95735.75;;;17.57;100.00
77207;BME280;66190;50.708;7.906;2023-07-29T06:00:16;95730.59;;;17.55;100.00
77207;BME280;66190;50.708;7.906;2023-07-29T06:02:41;95731.31;;;17.41;100.00
77207;BME280;66190;50.708;7.906;2023-07-29T06:05:07;95739.69;;;17.39;100.00
77207;BME280;66190;50.708;7.906;2023-07-29T06:07:32;95751.13;;;17.41;100.00
77207;BME280;66190;50.708;7.906;2023-07-29T06:09:59;95744.06;;;17.40;100.00
77207;BME280;66190;50.708;7.906;2023-07-29T06:12:25;95734.06;;;17.46;100.00
77207;BME280;66190;50.708;7.906;2023-07-29T06:14:50;95731.31;;;17.41;100.00
77207;BME280;66190;50.708;7.906;2023-07-29T06:17:15;95748.66;;;17.35;100.00
77207;BME280;66190;50.708;7.906;2023-07-29T06:19:41;95753.81;;;17.36;100.00
77207;BME280;66190;50.708;7.906;2023-07-29T06:22:06;95741.63;;;17.39;100.00
77207;BME280;66190;50.708;7.906;2023-07-29T06:24:31;95733.47;;;17.39;100.00
77207;BME280;66190;50.708;7.906;2023-07-29T06:26:57;95734.06;;;17.46;100.00
77207;BME280;66190;50.708;7.906;2023-07-29T06:29:23;95723.78;;;17.48;100.00
77207;BME280;66190;50.708;7.906;2023-07-29T06:31:48;95721.06;;;17.53;100.00
77207;BME280;66190;50.708;7.906;2023-07-29T06:34:14;95724.09;;;17.61;100.00
77207;BME280;66190;50.708;7.906;2023-07-29T06:36:39;95727.63;;;17.62;100.00
77207;BME280;66190;50.708;7.906;2023-07-29T06:39:05;95728.19;;;17.64;100.00
77207;BME280;66190;50.708;7.906;2023-07-29T06:41:30;95735.78;;;17.62;100.00
77207;BME280;66190;50.708;7.906;2023-07-29T06:43:55;95745.03;;;17.56;100.00
77207;BME280;66190;50.708;7.906;2023-07-29T06:46:21;95742.81;;;17.48;100.00
77207;BME280;66190;50.708;7.906;2023-07-29T06:48:46;95736.53;;;17.47;100.00
77207;BME280;66190;50.708;7.906;2023-07-29T06:51:12;95732.66;;;17.43;100.00
77207;BME280;66190;50.708;7.906;2023-07-29T06:53:37;95737.41;;;17.53;100.00
77207;BME280;66190;50.708;7.906;2023-07-29T06:56:03;95733.50;;;17.44;100.00
77207;BME280;66190;50.708;7.906;2023-07-29T06:58:29;95746.00;;;17.45;100.00
77207;BME280;66190;50.708;7.906;2023-07-29T07:00:55;95768.06;;;17.48;100.00
77207;BME280;66190;50.708;7.906;2023-07-29T07:03:20;95768.34;;;17.47;100.00
77207;BME280;66190;50.708;7.906;2023-07-29T07:05:46;95765.94;;;17.55;100.00
77207;BME280;66190;50.708;7.906;2023-07-29T07:08:11;95776.50;;;17.47;100.00
77207;BME280;66190;50.708;7.906;2023-07-29T07:10:36;95778.16;;;17.48;100.00
77207;BME280;66190;50.708;7.906;2023-07-29T07:13:02;95788.25;;;17.52;100.00
77207;BME280;66190;50.708;7.906;2023-07-29T07:15:27;95786.63;;;17.51;100.00
77207;BME280;66190;50.708;7.906;2023-07-29T07:17:53;95784.66;;;17.47;100.00
77207;BME280;66190;50.708;7.906;2023-07-29T07:20:18;95801.81;;;17.47;100.00
77207;BME280;66190;50.708;7.906;2023-07-29T07:22:44;95799.59;;;17.44;100.00
77207;BME280;66190;50.708;7.906;2023-07-29T07:25:09;95805.78;;;17.40;100.00
77207;BME280;66190;50.708;7.906;2023-07-29T07:27:35;95802.50;;;17.38;100.00
77207;BME280;66190;50.708;7.906;2023-07-29T07:30:01;95806.88;;;17.39;100.00
77207;BME280;66190;50.708;7.906;2023-07-29T07:32:27;95809.03;;;17.37;100.00
77207;BME280;66190;50.708;7.906;2023-07-29T07:34:52;95805.59;;;17.46;100.00
77207;BME280;66190;50.708;7.906;2023-07-29T07:37:17;95800.22;;;17.51;100.00
77207;BME280;66190;50.708;7.906;2023-07-29T07:39:43;95807.34;;;17.62;100.00
77207;BME280;66190;50.708;7.906;2023-07-29T07:42:08;95798.66;;;17.65;100.00
77207;BME280;66190;50.708;7.906;2023-07-29T07:44:34;95785.16;;;17.80;100.00
77207;BME280;66190;50.708;7.906;2023-07-29T07:46:59;95784.41;;;17.95;99.75
77207;BME280;66190;50.708;7.906;2023-07-29T07:49:24;95779.50;;;17.92;98.63
77207;BME280;66190;50.708;7.906;2023-07-29T07:51:50;95788.53;;;18.02;98.84
77207;BME280;66190;50.708;7.906;2023-07-29T07:54:15;95783.91;;;18.03;97.70
77207;BME280;66190;50.708;7.906;2023-07-29T07:56:41;95789.09;;;18.04;96.95
77207;BME280;66190;50.708;7.906;2023-07-29T07:59:06;95788.25;;;17.99;96.70
77207;BME280;66190;50.708;7.906;2023-07-29T08:01:38;95783.63;;;17.99;94.96
77207;BME280;66190;50.708;7.906;2023-07-29T08:04:04;95784.69;;;17.98;94.61
77207;BME280;66190;50.708;7.906;2023-07-29T08:06:30;95792.13;;;18.13;94.61
77207;BME280;66190;50.708;7.906;2023-07-29T08:08:56;95787.56;;;18.29;93.99
77207;BME280;66190;50.708;7.906;2023-07-29T08:11:22;95778.56;;;18.33;92.59
77207;BME280;66190;50.708;7.906;2023-07-29T08:13:47;95790.84;;;18.31;91.25
77207;BME280;66190;50.708;7.906;2023-07-29T08:16:13;95797.75;;;18.48;92.63
77207;BME280;66190;50.708;7.906;2023-07-29T08:18:38;95811.06;;;18.45;92.47
77207;BME280;66190;50.708;7.906;2023-07-29T08:21:04;95811.34;;;18.43;90.95
77207;BME280;66190;50.708;7.906;2023-07-29T08:23:31;95809.66;;;18.37;91.08
77207;BME280;66190;50.708;7.906;2023-07-29T08:25:58;95808.50;;;18.28;90.70
77207;BME280;66190;50.708;7.906;2023-07-29T08:28:29;95806.38;;;18.35;91.87
77207;BME280;66190;50.708;7.906;2023-07-29T08:30:55;95804.31;;;18.57;92.32
77207;BME280;66190;50.708;7.906;2023-07-29T08:33:21;95798.03;;;18.57;92.30
77207;BME280;66190;50.708;7.906;2023-07-29T08:35:46;95809.78;;;18.67;90.86
77207;BME280;66190;50.708;7.906;2023-07-29T08:38:11;95811.13;;;18.65;90.45
77207;BME280;66190;50.708;7.906;2023-07-29T08:40:42;95807.63;;;18.74;91.24
77207;BME280;66190;50.708;7.906;2023-07-29T08:43:11;95799.47;;;18.94;89.40
77207;BME280;66190;50.708;7.906;2023-07-29T08:45:39;95793.22;;;19.09;89.20
77207;BME280;66190;50.708;7.906;2023-07-29T08:48:08;95798.13;;;19.12;86.03
77207;BME280;66190;50.708;7.906;2023-07-29T08:50:36;95795.94;;;18.99;86.42
77207;BME280;66190;50.708;7.906;2023-07-29T08:53:04;95787.72;;;18.89;85.78
77207;BME280;66190;50.708;7.906;2023-07-29T08:55:33;95795.91;;;18.94;85.15
77207;BME280;66190;50.708;7.906;2023-07-29T08:57:59;95801.13;;;19.05;82.62
77207;BME280;66190;50.708;7.906;2023-07-29T09:00:25;95785.03;;;19.09;81.77
77207;BME280;66190;50.708;7.906;2023-07-29T09:02:51;95795.41;;;19.22;81.38
77207;BME280;66190;50.708;7.906;2023-07-29T09:05:16;95789.13;;;19.16;80.26
77207;BME280;66190;50.708;7.906;2023-07-29T09:07:42;95784.78;;;19.31;83.64
77207;BME280;66190;50.708;7.906;2023-07-29T09:10:09;95792.66;;;19.17;81.76
77207;BME280;66190;50.708;7.906;2023-07-29T09:12:39;95798.13;;;19.22;82.00
77207;BME280;66190;50.708;7.906;2023-07-29T09:15:05;95797.88;;;19.29;81.68
77207;BME280;66190;50.708;7.906;2023-07-29T09:17:33;95797.84;;;19.23;83.50
77207;BME280;66190;50.708;7.906;2023-07-29T09:20:02;95805.81;;;19.30;83.35
77207;BME280;66190;50.708;7.906;2023-07-29T09:22:27;95806.06;;;19.29;82.41
77207;BME280;66190;50.708;7.906;2023-07-29T09:24:53;95802.50;;;19.28;82.32
77207;BME280;66190;50.708;7.906;2023-07-29T09:27:28;95804.44;;;19.33;80.89
77207;BME280;66190;50.708;7.906;2023-07-29T09:29:57;95814.25;;;19.44;80.78
77207;BME280;66190;50.708;7.906;2023-07-29T09:32:24;95817.00;;;19.39;79.74
77207;BME280;66190;50.708;7.906;2023-07-29T09:34:50;95813.16;;;19.35;81.18
77207;BME280;66190;50.708;7.906;2023-07-29T09:37:25;95808.25;;;19.52;79.23
77207;BME280;66190;50.708;7.906;2023-07-29T09:39:52;95807.44;;;19.31;78.93
77207;BME280;66190;50.708;7.906;2023-07-29T09:42:20;95802.78;;;19.21;79.94
77207;BME280;66190;50.708;7.906;2023-07-29T09:44:48;95802.22;;;19.24;81.20
77207;BME280;66190;50.708;7.906;2023-07-29T09:47:20;95806.34;;;19.37;79.60
77207;BME280;66190;50.708;7.906;2023-07-29T09:49:46;95812.88;;;19.61;80.45
77207;BME280;66190;50.708;7.906;2023-07-29T09:52:14;95809.31;;;19.66;79.64
77207;BME280;66190;50.708;7.906;2023-07-29T09:54:42;95805.22;;;19.58;79.42
77207;BME280;66190;50.708;7.906;2023-07-29T09:57:07;95821.91;;;19.37;78.22
77207;BME280;66190;50.708;7.906;2023-07-29T09:59:36;95814.28;;;19.34;80.97
77207;BME280;66190;50.708;7.906;2023-07-29T10:02:01;95822.66;;;19.17;81.93
77207;BME280;66190;50.708;7.906;2023-07-29T10:04:27;95824.00;;;18.99;82.91
77207;BME280;66190;50.708;7.906;2023-07-29T10:06:54;95823.44;;;18.92;84.17
77207;BME280;66190;50.708;7.906;2023-07-29T10:09:20;95838.72;;;18.93;84.80
77207;BME280;66190;50.708;7.906;2023-07-29T10:11:46;95831.59;;;18.82;83.27
77207;BME280;66190;50.708;7.906;2023-07-29T10:14:12;95838.66;;;18.73;81.75
77207;BME280;66190;50.708;7.906;2023-07-29T10:16:40;95828.88;;;18.72;83.76
77207;BME280;66190;50.708;7.906;2023-07-29T10:19:07;95831.88;;;18.71;83.68
77207;BME280;66190;50.708;7.906;2023-07-29T10:21:33;95834.31;;;18.67;81.32
77207;BME280;66190;50.708;7.906;2023-07-29T10:24:01;95834.88;;;18.84;82.74
77207;BME280;66190;50.708;7.906;2023-07-29T10:26:31;95840.06;;;18.76;83.25
77207;BME280;66190;50.708;7.906;2023-07-29T10:28:59;95850.91;;;18.61;84.76
77207;BME280;66190;50.708;7.906;2023-07-29T10:31:30;95852.84;;;18.75;86.71
77207;BME280;66190;50.708;7.906;2023-07-29T10:33:56;95848.19;;;18.61;84.97
77207;BME280;66190;50.708;7.906;2023-07-29T10:36:22;95849.22;;;18.45;84.98
77207;BME280;66190;50.708;7.906;2023-07-29T10:38:49;95857.44;;;18.60;87.26
77207;BME280;66190;50.708;7.906;2023-07-29T10:41:14;95851.16;;;18.59;87.87
77207;BME280;66190;50.708;7.906;2023-07-29T10:43:40;95844.69;;;18.75;87.73
77207;BME280;66190;50.708;7.906;2023-07-29T10:46:19;95849.94;;;19.12;87.85
77207;BME280;66190;50.708;7.906;2023-07-29T10:54:09;95841.72;;;18.92;84.37
77207;BME280;66190;50.708;7.906;2023-07-29T10:56:37;95845.25;;;18.97;83.90
77207;BME280;66190;50.708;7.906;2023-07-29T11:01:38;95841.47;;;19.08;81.90
77207;BME280;66190;50.708;7.906;2023-07-29T11:09:40;95836.22;;;18.82;84.70
77207;BME280;66190;50.708;7.906;2023-07-29T11:12:44;95837.91;;;19.08;85.93
77207;BME280;66190;50.708;7.906;2023-07-29T11:17:58;95839.09;;;19.42;82.59
77207;BME280;66190;50.708;7.906;2023-07-29T11:22:49;95839.63;;;19.59;79.46
77207;BME280;66190;50.708;7.906;2023-07-29T11:25:16;95846.16;;;19.73;79.75
77207;BME280;66190;50.708;7.906;2023-07-29T11:27:43;95836.34;;;19.67;78.96
77207;BME280;66190;50.708;7.906;2023-07-29T11:30:13;95840.72;;;19.73;77.96
77207;BME280;66190;50.708;7.906;2023-07-29T11:32:41;95838.78;;;19.74;76.48
77207;BME280;66190;50.708;7.906;2023-07-29T11:35:15;95840.16;;;19.81;78.23
77207;BME280;66190;50.708;7.906;2023-07-29T11:37:43;95843.13;;;20.05;78.65
77207;BME280;66190;50.708;7.906;2023-07-29T11:40:09;95848.59;;;19.95;75.78
77207;BME280;66190;50.708;7.906;2023-07-29T11:42:38;95853.25;;;19.89;76.21
77207;BME280;66190;50.708;7.906;2023-07-29T11:45:04;95862.75;;;20.07;76.57
77207;BME280;66190;50.708;7.906;2023-07-29T11:47:32;95849.66;;;20.04;78.53
77207;BME280;66190;50.708;7.906;2023-07-29T11:50:01;95846.13;;;19.93;76.48
77207;BME280;66190;50.708;7.906;2023-07-29T11:52:27;95847.22;;;19.92;78.13
77207;BME280;66190;50.708;7.906;2023-07-29T11:54:54;95840.09;;;20.16;76.79
77207;BME280;66190;50.708;7.906;2023-07-29T11:57:19;95835.34;;;20.57;77.46
77207;BME280;66190;50.708;7.906;2023-07-29T11:59:46;95838.81;;;20.73;74.54
77207;BME280;66190;50.708;7.906;2023-07-29T12:02:16;95830.59;;;20.73;73.67
77207;BME280;66190;50.708;7.906;2023-07-29T12:04:43;95833.38;;;20.63;72.85
77207;BME280;66190;50.708;7.906;2023-07-29T12:07:10;95839.22;;;20.41;73.26
77207;BME280;66190;50.708;7.906;2023-07-29T12:09:37;95838.97;;;20.33;74.40
77207;BME280;66190;50.708;7.906;2023-07-29T12:12:04;95835.47;;;20.17;74.63
77207;BME280;66190;50.708;7.906;2023-07-29T12:14:31;95839.88;;;19.93;76.65
77207;BME280;66190;50.708;7.906;2023-07-29T12:16:59;95845.84;;;20.00;78.25
77207;BME280;66190;50.708;7.906;2023-07-29T12:19:34;95838.22;;;19.92;78.73
77207;BME280;66190;50.708;7.906;2023-07-29T12:22:03;95832.78;;;19.77;79.31
77207;BME280;66190;50.708;7.906;2023-07-29T12:24:30;95834.44;;;19.68;81.54
77207;BME280;66190;50.708;7.906;2023-07-29T12:26:56;95845.34;;;19.63;80.36
77207;BME280;66190;50.708;7.906;2023-07-29T12:29:22;95836.09;;;19.49;82.18
77207;BME280;66190;50.708;7.906;2023-07-29T12:31:57;95845.38;;;19.53;81.48
77207;BME280;66190;50.708;7.906;2023-07-29T12:34:25;95841.81;;;19.42;82.33
77207;BME280;66190;50.708;7.906;2023-07-29T12:36:51;95833.09;;;19.45;83.62
77207;BME280;66190;50.708;7.906;2023-07-29T12:39:27;95829.53;;;19.60;83.98
77207;BME280;66190;50.708;7.906;2023-07-29T12:41:55;95828.97;;;19.63;81.48
77207;BME280;66190;50.708;7.906;2023-07-29T12:44:32;95823.78;;;19.71;81.12
77207;BME280;66190;50.708;7.906;2023-07-29T12:46:58;95816.94;;;19.74;81.36
77207;BME280;66190;50.708;7.906;2023-07-29T12:49:23;95815.78;;;20.10;81.76
77207;BME280;66190;50.708;7.906;2023-07-29T12:51:50;95820.72;;;20.08;77.38
77207;BME280;66190;50.708;7.906;2023-07-29T12:54:15;95831.63;;;20.13;73.74
77207;BME280;66190;50.708;7.906;2023-07-29T12:56:40;95824.53;;;20.22;74.67
77207;BME280;66190;50.708;7.906;2023-07-29T12:59:06;95818.53;;;20.10;70.16
77207;BME280;66190;50.708;7.906;2023-07-29T13:01:32;95817.91;;;20.33;74.85
77207;BME280;66190;50.708;7.906;2023-07-29T13:03:57;95825.53;;;20.46;69.46
77207;BME280;66190;50.708;7.906;2023-07-29T13:06:23;95824.41;;;20.52;70.07
77207;BME280;66190;50.708;7.906;2023-07-29T13:08:49;95820.00;;;20.56;69.23
77207;BME280;66190;50.708;7.906;2023-07-29T13:11:15;95831.47;;;20.63;69.26
77207;BME280;66190;50.708;7.906;2023-07-29T13:13:40;95825.34;;;20.86;69.76
77207;BME280;66190;50.708;7.906;2023-07-29T13:16:06;95820.00;;;21.10;68.47
77207;BME280;66190;50.708;7.906;2023-07-29T13:18:32;95819.06;;;21.29;72.15